createdAt,value
2023-05-15T00:00:44.428Z,78.36
2023-05-15T00:03:13.031Z,78.34
2023-05-15T00:05:42.503Z,79.71
2023-05-15T00:08:10.728Z,80.00
2023-05-15T00:10:40.874Z,78.70
2023-05-15T00:13:10.884Z,79.14
2023-05-15T00:15:39.001Z,79.26
2023-05-15T00:18:07.290Z,79.56
2023-05-15T00:20:35.339Z,80.11
2023-05-15T00:23:04.767Z,80.20
2023-05-15T00:25:32.922Z,80.10
2023-05-15T00:28:00.911Z,81.09
2023-05-15T00:30:30.697Z,80.76
2023-05-15T00:32:58.850Z,80.01
2023-05-15T00:35:27.300Z,79.91
2023-05-15T00:37:55.455Z,80.29
2023-05-15T00:40:27.023Z,80.61
2023-05-15T00:42:55.629Z,80.24
2023-05-15T00:45:27.003Z,80.87
2023-05-15T00:47:56.064Z,80.16
2023-05-15T00:50:25.464Z,81.01
2023-05-15T00:52:54.283Z,81.19
2023-05-15T00:55:22.457Z,80.69
2023-05-15T00:57:54.045Z,81.90
2023-05-15T01:00:22.301Z,82.85
2023-05-15T01:02:50.876Z,82.32
2023-05-15T01:05:19.275Z,82.19
2023-05-15T01:07:56.014Z,82.55
2023-05-15T01:10:25.206Z,83.05
2023-05-15T01:12:56.748Z,83.67
2023-05-15T01:15:25.364Z,83.67
2023-05-15T01:17:53.799Z,82.68
2023-05-15T01:20:24.329Z,82.98
2023-05-15T01:23:01.696Z,83.26
2023-05-15T01:25:54.222Z,83.60
2023-05-15T01:28:31.904Z,83.53
2023-05-15T01:31:07.404Z,84.03
2023-05-15T01:33:42.911Z,84.75
2023-05-15T01:36:15.986Z,82.90
2023-05-15T01:38:47.454Z,81.92
2023-05-15T01:41:23.524Z,82.71
2023-05-15T01:43:57.858Z,83.54
2023-05-15T01:46:31.444Z,83.69
2023-05-15T01:49:02.144Z,83.12
2023-05-15T01:51:31.638Z,82.58
2023-05-15T01:54:00.800Z,82.70
2023-05-15T01:56:29.637Z,83.29
2023-05-15T01:59:01.051Z,82.79
2023-05-15T02:01:31.086Z,82.72
2023-05-15T02:03:59.564Z,83.01
2023-05-15T02:06:28.678Z,83.24
2023-05-15T02:08:58.995Z,83.30
2023-05-15T02:11:27.038Z,83.52
2023-05-15T02:13:58.175Z,83.08
2023-05-15T02:16:27.819Z,83.40
2023-05-15T02:18:56.439Z,82.91
2023-05-15T02:21:24.644Z,82.74
2023-05-15T02:23:52.742Z,83.70
2023-05-15T02:26:36.775Z,84.50
2023-05-15T02:29:14.994Z,83.97
2023-05-15T02:31:52.780Z,84.05
2023-05-15T02:34:29.139Z,83.53
2023-05-15T02:36:59.256Z,83.89
2023-05-15T02:39:28.908Z,83.39
2023-05-15T02:41:58.580Z,83.84
2023-05-15T02:44:27.397Z,83.72
2023-05-15T02:46:57.290Z,83.62
2023-05-15T02:49:25.852Z,84.01
2023-05-15T02:51:53.951Z,84.04
2023-05-15T02:54:22.090Z,84.65
2023-05-15T02:56:50.157Z,83.73
2023-05-15T02:59:20.173Z,83.89
2023-05-15T03:01:48.555Z,84.60
2023-05-15T03:04:18.248Z,83.63
2023-05-15T03:06:46.386Z,83.63
2023-05-15T03:09:14.483Z,83.32
2023-05-15T03:11:42.514Z,83.63
2023-05-15T03:14:10.903Z,83.71
2023-05-15T03:16:39.146Z,82.92
2023-05-15T03:19:07.546Z,82.68
2023-05-15T03:21:37.049Z,83.66
2023-05-15T03:24:05.319Z,82.84
2023-05-15T03:26:33.382Z,82.88
2023-05-15T03:29:02.242Z,82.66
2023-05-15T03:31:30.352Z,83.14
2023-05-15T03:33:58.676Z,82.53
2023-05-15T03:36:26.743Z,82.33
2023-05-15T03:38:56.310Z,82.50
2023-05-15T03:41:26.154Z,82.43
2023-05-15T03:43:54.270Z,82.58
2023-05-15T03:46:22.344Z,82.50
2023-05-15T03:48:50.545Z,82.63
2023-05-15T03:51:18.687Z,82.14
2023-05-15T03:53:46.821Z,82.26
2023-05-15T03:56:16.449Z,82.01
2023-05-15T03:58:44.643Z,81.71
2023-05-15T04:01:12.725Z,81.83
2023-05-15T04:03:40.810Z,81.61
2023-05-15T04:06:08.924Z,81.79
2023-05-15T04:08:37.263Z,81.57
2023-05-15T04:11:06.084Z,81.57
2023-05-15T04:13:35.502Z,81.64
2023-05-15T04:16:04.450Z,81.86
2023-05-15T04:18:32.757Z,82.34
2023-05-15T04:21:00.939Z,81.86
2023-05-15T04:23:29.138Z,82.02
2023-05-15T04:25:57.173Z,81.72
2023-05-15T04:28:25.155Z,81.67
2023-05-15T04:30:54.525Z,81.93
2023-05-15T04:33:22.637Z,81.37
2023-05-15T04:35:50.925Z,81.38
2023-05-15T04:38:19.023Z,82.49
2023-05-15T04:40:47.150Z,82.11
2023-05-15T04:43:15.651Z,80.98
2023-05-15T04:45:43.883Z,81.17
2023-05-15T04:48:13.401Z,80.60
2023-05-15T04:50:41.594Z,80.54
2023-05-15T04:53:09.584Z,80.98
2023-05-15T04:55:37.714Z,81.09
2023-05-15T04:58:05.776Z,80.26
2023-05-15T05:00:33.819Z,80.98
2023-05-15T05:03:02.142Z,80.23
2023-05-15T05:05:31.655Z,79.98
2023-05-15T05:07:59.696Z,79.75
2023-05-15T05:10:27.839Z,79.56
2023-05-15T05:12:56.439Z,78.76
2023-05-15T05:15:24.876Z,79.22
2023-05-15T05:17:54.437Z,78.90
2023-05-15T05:20:22.987Z,78.12
2023-05-15T05:22:52.613Z,79.37
2023-05-15T05:25:20.892Z,78.13
2023-05-15T05:27:48.978Z,78.22
2023-05-15T05:30:17.421Z,78.24
2023-05-15T05:32:45.674Z,77.80
2023-05-15T05:35:13.869Z,77.03
2023-05-15T05:37:41.978Z,77.20
2023-05-15T05:40:12.607Z,77.32
2023-05-15T05:42:40.726Z,76.65
2023-05-15T05:45:09.596Z,77.01
2023-05-15T05:47:37.655Z,76.61
2023-05-15T05:50:06.455Z,76.14
2023-05-15T05:52:34.570Z,76.58
2023-05-15T05:55:02.572Z,76.72
2023-05-15T05:57:32.110Z,77.27
2023-05-15T06:00:00.354Z,76.96
2023-05-15T06:02:29.007Z,77.64
2023-05-15T06:04:57.567Z,77.50
2023-05-15T06:07:25.672Z,77.21
2023-05-15T06:09:53.782Z,77.98
2023-05-15T06:12:23.131Z,77.47
2023-05-15T06:14:53.386Z,77.67
2023-05-15T06:17:21.961Z,77.19
2023-05-15T06:19:50.047Z,77.95
2023-05-15T06:22:18.108Z,77.40
2023-05-15T06:24:46.208Z,78.22
2023-05-15T06:27:14.576Z,78.30
2023-05-15T06:29:42.760Z,78.76
2023-05-15T06:32:12.201Z,78.27
2023-05-15T06:34:40.385Z,77.66
2023-05-15T06:37:08.524Z,77.15
2023-05-15T06:39:36.707Z,77.63
2023-05-15T06:42:05.059Z,77.45
2023-05-15T06:44:33.344Z,77.17
2023-05-15T06:47:01.438Z,76.91
2023-05-15T06:49:31.105Z,76.40
2023-05-15T06:51:59.216Z,76.17
2023-05-15T06:54:27.334Z,75.90
2023-05-15T06:56:55.354Z,75.32
2023-05-15T06:59:23.354Z,74.46
2023-05-15T07:01:51.655Z,74.19
2023-05-15T07:04:19.978Z,73.79
2023-05-15T07:06:49.406Z,73.60
2023-05-15T07:09:17.528Z,72.99
2023-05-15T07:11:45.648Z,73.01
2023-05-15T07:14:13.729Z,72.80
2023-05-15T07:16:41.972Z,72.45
2023-05-15T07:19:10.331Z,72.26
2023-05-15T07:21:38.524Z,71.85
2023-05-15T07:24:08.497Z,71.62
2023-05-15T07:26:46.681Z,71.67
2023-05-15T07:29:25.015Z,71.75
2023-05-15T07:31:53.001Z,70.62
2023-05-15T07:34:21.048Z,70.70
2023-05-15T07:36:49.045Z,70.34
2023-05-15T07:39:18.700Z,69.70
2023-05-15T07:41:47.722Z,68.61
2023-05-15T07:44:15.714Z,68.43
2023-05-15T07:46:45.790Z,68.28
2023-05-15T07:49:13.939Z,68.98
2023-05-15T07:51:42.838Z,68.55
2023-05-15T07:54:10.965Z,67.31
2023-05-15T07:56:40.652Z,66.17
2023-05-15T07:59:09.635Z,66.01
2023-05-15T08:01:38.021Z,66.59
2023-05-15T08:04:09.684Z,66.37
2023-05-15T08:06:39.198Z,66.76
2023-05-15T08:09:08.043Z,67.05
2023-05-15T08:11:37.258Z,67.03
2023-05-15T08:14:06.722Z,67.14
2023-05-15T08:16:35.011Z,66.96
2023-05-15T08:19:05.094Z,66.52
2023-05-15T08:21:33.176Z,67.34
2023-05-15T08:24:01.685Z,67.49
2023-05-15T08:26:29.694Z,66.64
2023-05-15T08:28:57.826Z,65.84
2023-05-15T08:31:27.346Z,65.25
2023-05-15T08:33:55.527Z,65.23
2023-05-15T08:36:23.747Z,65.00
2023-05-15T08:38:51.849Z,65.44
2023-05-15T08:41:39.995Z,65.65
2023-05-15T08:44:10.705Z,65.61
2023-05-15T08:46:40.311Z,65.33
2023-05-15T08:49:15.963Z,64.17
2023-05-15T08:51:44.352Z,63.89
2023-05-15T08:54:12.756Z,63.20
2023-05-15T08:56:41.148Z,64.69
2023-05-15T08:59:09.380Z,64.83
2023-05-15T09:01:38.133Z,64.99
2023-05-15T09:04:07.597Z,62.57
2023-05-15T09:06:36.604Z,63.79
2023-05-15T09:09:06.072Z,63.64
2023-05-15T09:11:34.603Z,63.05
2023-05-15T09:14:02.634Z,62.94
2023-05-15T09:16:30.699Z,63.19
2023-05-15T09:19:01.423Z,63.43
2023-05-15T09:21:32.279Z,62.34
2023-05-15T09:24:18.908Z,62.65
2023-05-15T09:26:48.464Z,61.90
2023-05-15T09:29:19.656Z,62.18
2023-05-15T09:31:48.420Z,63.49
2023-05-15T09:34:16.668Z,62.12
2023-05-15T09:36:46.129Z,63.01
2023-05-15T09:39:14.244Z,62.82
2023-05-15T09:41:45.213Z,62.59
2023-05-15T09:44:21.807Z,63.15
2023-05-15T09:46:51.573Z,63.33
2023-05-15T09:49:20.271Z,64.79
2023-05-15T09:51:50.826Z,66.00
2023-05-15T09:54:20.349Z,65.84
2023-05-15T09:56:49.131Z,66.62
2023-05-15T09:59:19.444Z,66.50
2023-05-15T10:01:47.793Z,64.87
2023-05-15T10:04:16.159Z,64.08
2023-05-15T10:06:46.574Z,65.05
2023-05-15T10:09:16.533Z,65.31
2023-05-15T10:11:51.539Z,65.74
2023-05-15T10:14:21.098Z,65.39
2023-05-15T10:16:49.955Z,64.47
2023-05-15T10:19:21.055Z,63.96
2023-05-15T10:21:49.760Z,62.33
2023-05-15T10:24:21.910Z,62.67
2023-05-15T10:26:50.617Z,62.87
2023-05-15T10:29:21.269Z,62.93
2023-05-15T10:31:50.033Z,61.39
2023-05-15T10:34:19.956Z,60.56
2023-05-15T10:36:50.868Z,60.95
2023-05-15T10:39:21.055Z,61.25
2023-05-15T10:41:52.012Z,61.45
2023-05-15T10:44:21.636Z,61.27
2023-05-15T10:46:50.407Z,62.51
2023-05-15T10:49:18.674Z,62.52
2023-05-15T10:51:46.733Z,62.76
2023-05-15T10:54:15.967Z,63.36
2023-05-15T10:56:45.610Z,65.74
2023-05-15T10:59:13.684Z,64.11
2023-05-15T11:01:42.451Z,63.00
2023-05-15T11:04:12.937Z,63.07
2023-05-15T11:06:45.330Z,62.91
2023-05-15T11:09:36.482Z,63.92
2023-05-15T11:12:07.252Z,63.05
2023-05-15T11:14:38.671Z,65.96
2023-05-15T11:17:08.706Z,66.15
2023-05-15T11:19:55.560Z,64.11
2023-05-15T11:22:28.506Z,63.70
2023-05-15T11:25:00.355Z,63.08
2023-05-15T11:27:32.362Z,62.97
2023-05-15T11:30:15.311Z,62.69
2023-05-15T11:32:56.209Z,62.59
2023-05-15T11:35:27.816Z,62.52
2023-05-15T11:37:58.323Z,62.48
2023-05-15T11:40:28.152Z,62.64
2023-05-15T11:43:08.734Z,64.37
2023-05-15T11:45:38.725Z,63.09
2023-05-15T11:48:13.767Z,62.29
2023-05-15T11:50:43.118Z,61.87
2023-05-15T11:53:11.575Z,61.70
2023-05-15T11:55:41.518Z,61.80
2023-05-15T11:58:15.129Z,61.71
2023-05-15T12:00:43.875Z,62.32
2023-05-15T12:03:20.503Z,62.25
2023-05-15T12:05:58.051Z,60.55
2023-05-15T12:08:28.259Z,59.52
2023-05-15T12:11:00.557Z,59.28
2023-05-15T12:13:30.731Z,57.26
2023-05-15T12:15:58.869Z,56.34
2023-05-15T12:18:26.966Z,55.12
2023-05-15T12:20:55.893Z,55.69
2023-05-15T12:23:25.483Z,54.52
2023-05-15T12:25:58.542Z,53.08
2023-05-15T12:28:27.314Z,52.81
2023-05-15T12:30:57.179Z,49.66
2023-05-15T12:33:26.079Z,50.05
2023-05-15T12:36:00.281Z,49.23
2023-05-15T12:38:30.659Z,48.22
2023-05-15T12:40:59.002Z,48.46
2023-05-15T12:43:27.563Z,48.85
2023-05-15T12:45:58.234Z,47.99
2023-05-15T12:48:31.401Z,46.61
2023-05-15T12:51:06.726Z,46.62
2023-05-15T12:53:35.303Z,46.94
2023-05-15T12:56:04.883Z,45.95
2023-05-15T12:58:32.975Z,46.56
2023-05-15T13:01:03.676Z,47.50
2023-05-15T13:03:32.478Z,48.35
2023-05-15T13:06:03.502Z,47.91
2023-05-15T13:08:31.616Z,48.56
2023-05-15T13:11:01.404Z,48.74
2023-05-15T13:13:46.090Z,49.88
2023-05-15T13:16:23.425Z,49.42
2023-05-15T13:18:51.683Z,49.28
2023-05-15T13:21:20.132Z,50.71
2023-05-15T13:23:48.251Z,50.00
2023-05-15T13:26:16.370Z,50.39
2023-05-15T13:28:44.495Z,51.01
2023-05-15T13:31:12.667Z,51.34
2023-05-15T13:33:42.194Z,51.84
2023-05-15T13:36:10.670Z,53.82
2023-05-15T13:38:39.350Z,56.00
2023-05-15T13:41:07.484Z,57.36
2023-05-15T13:43:35.588Z,59.35
2023-05-15T13:46:03.642Z,59.76
2023-05-15T13:48:31.837Z,60.78
2023-05-15T13:51:01.352Z,60.73
2023-05-15T13:53:29.375Z,61.18
2023-05-15T13:55:57.507Z,63.19
2023-05-15T13:58:26.776Z,61.83
2023-05-15T14:00:54.990Z,63.43
2023-05-15T14:03:23.264Z,63.13
2023-05-15T14:05:51.950Z,64.40
2023-05-15T14:08:21.577Z,64.68
2023-05-15T14:10:49.625Z,66.34
2023-05-15T14:13:17.899Z,65.88
2023-05-15T14:15:46.161Z,66.38
2023-05-15T14:18:14.287Z,68.60
2023-05-15T14:20:42.337Z,68.82
2023-05-15T14:23:10.403Z,69.35
2023-05-15T14:25:39.932Z,70.42
2023-05-15T14:28:08.085Z,68.68
2023-05-15T14:30:36.144Z,63.69
2023-05-15T14:33:04.261Z,63.90
2023-05-15T14:35:32.426Z,66.18
2023-05-15T14:38:00.536Z,65.47
2023-05-15T14:40:28.628Z,65.79
2023-05-15T14:42:58.698Z,63.22
2023-05-15T14:45:27.148Z,62.51
2023-05-15T14:47:55.401Z,60.50
2023-05-15T14:50:23.685Z,59.87
2023-05-15T14:52:58.608Z,56.42
2023-05-15T14:55:27.769Z,52.92
2023-05-15T14:58:01.102Z,54.97
2023-05-15T15:00:30.205Z,55.00
2023-05-15T15:02:59.522Z,54.02
2023-05-15T15:05:27.696Z,53.22
2023-05-15T15:08:03.756Z,53.48
2023-05-15T15:10:32.895Z,53.64
2023-05-15T15:13:02.486Z,54.05
2023-05-15T15:15:31.989Z,54.80
2023-05-15T15:18:00.169Z,54.02
2023-05-15T15:20:29.117Z,55.53
2023-05-15T15:22:57.525Z,60.19
2023-05-15T15:25:25.589Z,59.24
2023-05-15T15:27:54.067Z,60.05
2023-05-15T15:30:23.808Z,61.22
2023-05-15T15:32:52.041Z,62.14
2023-05-15T15:35:20.183Z,64.07
2023-05-15T15:37:48.220Z,64.14
2023-05-15T15:40:16.489Z,64.76
2023-05-15T15:42:44.583Z,62.52
2023-05-15T15:45:12.699Z,64.66
2023-05-15T15:47:42.374Z,62.30
2023-05-15T15:50:10.919Z,64.78
2023-05-15T15:52:38.894Z,63.02
2023-05-15T15:55:08.224Z,61.31
2023-05-15T15:57:38.023Z,62.31
2023-05-15T16:00:08.283Z,61.91
2023-05-15T16:02:37.107Z,62.06
2023-05-15T16:05:08.535Z,63.93
2023-05-15T16:07:36.750Z,63.16
2023-05-15T16:10:12.523Z,62.23
2023-05-15T16:12:53.271Z,59.78
2023-05-15T16:15:23.728Z,58.26
2023-05-15T16:17:54.363Z,57.92
2023-05-15T16:20:25.012Z,58.53
2023-05-15T16:22:53.584Z,58.47
2023-05-15T16:25:21.825Z,58.42
2023-05-15T16:27:49.944Z,57.46
2023-05-15T16:30:18.181Z,57.65
2023-05-15T16:32:46.810Z,56.79
2023-05-15T16:35:15.057Z,56.43
2023-05-15T16:37:44.469Z,56.83
2023-05-15T16:40:13.427Z,57.32
2023-05-15T16:42:41.687Z,59.89
2023-05-15T16:45:10.684Z,65.47
2023-05-15T16:47:40.073Z,66.04
2023-05-15T16:50:09.173Z,64.75
2023-05-15T16:52:38.872Z,64.58
2023-05-15T16:55:09.448Z,64.83
2023-05-15T16:57:37.530Z,66.66
2023-05-15T17:00:09.619Z,67.21
2023-05-15T17:02:37.967Z,67.72
2023-05-15T17:05:08.832Z,65.60
2023-05-15T17:07:37.043Z,63.15
2023-05-15T17:10:05.643Z,64.49
2023-05-15T17:12:35.240Z,63.68
2023-05-15T17:15:03.743Z,63.25
2023-05-15T17:17:31.841Z,62.87
2023-05-15T17:20:01.110Z,61.48
2023-05-15T17:22:30.945Z,61.38
2023-05-15T17:24:59.370Z,60.14
2023-05-15T17:27:27.516Z,60.07
2023-05-15T17:29:57.253Z,59.85
2023-05-15T17:32:25.705Z,60.01
2023-05-15T17:34:54.072Z,59.97
2023-05-15T17:37:22.070Z,59.79
2023-05-15T17:39:50.546Z,62.47
2023-05-15T17:42:18.681Z,62.47
2023-05-15T17:44:46.705Z,63.21
2023-05-15T17:47:16.133Z,63.67
2023-05-15T17:49:44.374Z,66.59
2023-05-15T17:52:12.454Z,68.33
2023-05-15T17:54:40.518Z,68.89
2023-05-15T17:57:08.602Z,66.85
2023-05-15T17:59:36.663Z,66.23
2023-05-15T18:02:05.018Z,64.39
2023-05-15T18:04:34.664Z,64.03
2023-05-15T18:07:02.804Z,64.53
2023-05-15T18:09:31.665Z,63.07
2023-05-15T18:11:59.968Z,63.40
2023-05-15T18:14:28.030Z,63.38
2023-05-15T18:16:57.546Z,63.55
2023-05-15T18:19:25.740Z,64.55
2023-05-15T18:21:55.574Z,63.25
2023-05-15T18:24:23.620Z,63.49
2023-05-15T18:26:51.712Z,64.24
2023-05-15T18:29:20.015Z,65.71
2023-05-15T18:31:48.221Z,67.55
2023-05-15T18:34:16.309Z,66.94
2023-05-15T18:36:44.466Z,64.32
2023-05-15T18:39:15.662Z,63.73
2023-05-15T18:41:43.869Z,64.68
2023-05-15T18:44:11.951Z,65.05
2023-05-15T18:46:40.099Z,62.62
2023-05-15T18:49:08.508Z,61.97
2023-05-15T18:51:36.648Z,61.89
2023-05-15T18:54:04.879Z,62.32
2023-05-15T18:56:34.366Z,63.13
2023-05-15T18:59:02.500Z,62.07
2023-05-15T19:01:30.843Z,63.38
2023-05-15T19:03:59.089Z,62.96
2023-05-15T19:06:27.354Z,63.84
2023-05-15T19:08:55.522Z,64.65
2023-05-15T19:11:23.662Z,64.96
2023-05-15T19:13:53.226Z,66.60
2023-05-15T19:16:21.433Z,68.39
2023-05-15T19:18:49.569Z,68.52
2023-05-15T19:21:21.041Z,67.74
2023-05-15T19:23:49.282Z,68.91
2023-05-15T19:26:17.326Z,69.87
2023-05-15T19:28:45.375Z,70.86
2023-05-15T19:31:30.195Z,69.85
2023-05-15T19:33:59.666Z,69.35
2023-05-15T19:36:27.766Z,69.29
2023-05-15T19:38:56.081Z,71.62
2023-05-15T19:41:24.589Z,70.76
2023-05-15T19:43:52.627Z,71.11
2023-05-15T19:46:22.029Z,70.15
2023-05-15T19:48:50.112Z,69.88
2023-05-15T19:51:18.224Z,71.58
2023-05-15T19:53:46.242Z,71.58
2023-05-15T19:56:14.895Z,71.75
2023-05-15T19:58:43.000Z,69.48
2023-05-15T20:01:11.341Z,73.18
2023-05-15T20:03:41.014Z,72.18
2023-05-15T20:06:10.444Z,71.85
2023-05-15T20:08:38.684Z,71.50
2023-05-15T20:11:06.822Z,72.75
2023-05-15T20:13:35.575Z,73.36
2023-05-15T20:16:07.193Z,71.09
2023-05-15T20:18:35.826Z,71.94
2023-05-15T20:21:05.300Z,71.17
2023-05-15T20:23:33.390Z,71.83
2023-05-15T20:26:01.514Z,72.44
2023-05-15T20:28:29.635Z,71.60
2023-05-15T20:30:58.470Z,71.42
2023-05-15T20:33:26.747Z,69.64
2023-05-15T20:35:54.829Z,70.13
2023-05-15T20:38:25.428Z,71.76
2023-05-15T20:40:53.689Z,71.89
2023-05-15T20:43:21.762Z,72.55
2023-05-15T20:45:49.823Z,70.75
2023-05-15T20:48:17.998Z,71.66
2023-05-15T20:50:46.070Z,71.77
2023-05-15T20:53:14.411Z,71.86
2023-05-15T20:55:43.916Z,72.11
2023-05-15T20:58:11.908Z,72.11
2023-05-15T21:00:40.233Z,70.89
2023-05-15T21:03:09.379Z,72.44
2023-05-15T21:05:37.627Z,71.75
2023-05-15T21:08:06.088Z,71.67
2023-05-15T21:10:35.591Z,71.10
2023-05-15T21:13:05.380Z,71.02
2023-05-15T21:15:33.487Z,69.99
2023-05-15T21:18:01.798Z,70.45
2023-05-15T21:20:29.864Z,70.86
2023-05-15T21:22:57.931Z,71.46
2023-05-15T21:25:26.064Z,71.11
2023-05-15T21:27:54.110Z,71.67
2023-05-15T21:30:23.736Z,72.72
2023-05-15T21:32:51.930Z,72.84
2023-05-15T21:35:20.021Z,72.91
2023-05-15T21:37:48.375Z,73.44
2023-05-15T21:40:16.616Z,73.50
2023-05-15T21:42:44.719Z,75.69
2023-05-15T21:45:12.835Z,73.93
2023-05-15T21:47:42.529Z,75.86
2023-05-15T21:50:11.153Z,75.59
2023-05-15T21:52:39.165Z,74.53
2023-05-15T21:55:08.484Z,75.62
2023-05-15T21:57:36.487Z,75.56
2023-05-15T22:00:07.335Z,75.42
2023-05-15T22:02:35.408Z,75.12
2023-05-15T22:05:05.466Z,75.16
2023-05-15T22:07:33.633Z,74.50
2023-05-15T22:10:03.187Z,73.41
2023-05-15T22:12:32.299Z,71.33
2023-05-15T22:15:01.303Z,70.38
2023-05-15T22:17:30.511Z,70.20
2023-05-15T22:20:07.484Z,71.16
2023-05-15T22:22:37.968Z,70.72
2023-05-15T22:25:07.213Z,71.64
2023-05-15T22:27:35.262Z,72.08
2023-05-15T22:30:03.315Z,71.82
2023-05-15T22:32:31.474Z,72.73
2023-05-15T22:34:59.479Z,72.93
2023-05-15T22:37:27.566Z,73.32
2023-05-15T22:39:57.199Z,72.20
2023-05-15T22:42:25.633Z,71.50
2023-05-15T22:44:55.440Z,73.11
2023-05-15T22:47:23.585Z,71.48
2023-05-15T22:49:51.601Z,71.35
2023-05-15T22:52:19.740Z,71.06
2023-05-15T22:54:47.836Z,70.75
2023-05-15T22:57:17.270Z,71.83
2023-05-15T22:59:46.003Z,73.71
2023-05-15T23:02:14.053Z,73.73
2023-05-15T23:04:42.086Z,74.00
2023-05-15T23:07:10.135Z,76.02
2023-05-15T23:09:38.165Z,74.31
2023-05-15T23:12:07.345Z,74.03
2023-05-15T23:14:36.791Z,72.26
2023-05-15T23:17:05.055Z,72.21
2023-05-15T23:19:33.194Z,73.19
2023-05-15T23:22:01.187Z,73.08
2023-05-15T23:24:29.219Z,73.87
2023-05-15T23:26:57.658Z,74.14
2023-05-15T23:29:25.807Z,73.58
2023-05-15T23:31:57.114Z,73.90
2023-05-15T23:34:25.306Z,75.18
2023-05-15T23:36:53.275Z,77.54
2023-05-15T23:39:21.412Z,76.39
2023-05-15T23:41:49.764Z,76.14
2023-05-15T23:44:17.861Z,77.23
2023-05-15T23:46:46.127Z,77.66
2023-05-15T23:49:15.621Z,78.32
2023-05-15T23:51:44.506Z,77.71
2023-05-15T23:54:12.742Z,77.34
2023-05-15T23:56:41.209Z,78.42
2023-05-15T23:59:09.196Z,76.88
